Latest Weather Observations for Dum In Mirrie

IDD60801

Issued at 2:05 pm CST Saturday 26 July 2014 (issued every 30 minutes, with the page automatically refreshed every 10 minutes)

About weather observations | Map of weather stations | Latest weather observations for NT | Other Formats
Station Details ID: 014277 Name: DUM IN MIRRIE AIRSTRIP Lat: -12.63 Lon: 130.37 Height: 3.5 m
Data from the previous 72 hours. | See also: Recent months at Dum In Mirrie
Date/Time
CST
Temp
°C
App
Temp
°C
Dew
Point
Rel
Hum
%
Delta-T
°C
Wind Press
QNH
hPa
Press
MSL
hPa
Rain
since 9 am
mm
Dir
 
Spd
km/h
Gust
km/h
Spd
kts
Gust
kts
26/02:00pm 30.8 29.1 14.8 37 9.8 ENE 17 24 9 13 1014.3 - 0.0
26/01:30pm 30.9 30.2 15.3 38 9.6 E 13 24 7 13 1014.7 1014.7 0.0
26/01:00pm 30.9 30.6 16.5 42 9.0 E 13 19 7 10 1015.3 - 0.0
26/12:30pm 29.9 30.6 18.0 48 7.6 E 11 19 6 10 1015.8 1015.8 0.0
26/12:00pm 29.1 30.2 18.8 53 6.6 E 11 17 6 9 1016.4 1016.4 0.0
26/11:30am 28.1 29.9 20.4 63 5.1 E 11 19 6 10 1016.8 1016.8 0.0
26/11:00am 27.5 29.7 21.1 68 4.2 E 11 17 6 9 1017.2 - 0.0
26/10:30am 26.4 28.4 20.7 71 3.7 ENE 11 20 6 11 1017.2 1017.2 0.0
26/10:00am 25.8 27.3 20.6 73 3.4 E 13 19 7 10 1017.4 - 0.0
26/09:30am 25.6 27.5 20.6 74 3.3 E 11 17 6 9 1017.5 1017.5 0.0
26/09:00am 24.6 27.5 21.1 81 2.3 E 7 11 4 6 1017.3 1017.3 0.0
26/08:30am 23.1 26.5 21.7 92 0.9 E 6 7 3 4 1017.0 1017.0 0.0
26/08:00am 21.8 25.5 21.5 98 0.2 ESE 4 7 2 4 1016.8 - 0.0
26/07:30am 20.4 23.0 20.1 98 0.2 ESE 6 7 3 4 1016.6 1016.6 0.0
26/07:00am 19.8 22.3 19.1 96 0.4 ESE 4 6 2 3 1016.4 - 0.0
26/06:30am 21.0 24.3 20.7 98 0.2 ESE 4 6 2 3 1016.2 1016.2 0.0
26/06:00am 20.6 23.7 20.3 98 0.2 E 4 6 2 3 1016.2 1016.2 0.0
26/05:30am 21.4 24.5 21.1 98 0.2 E 6 7 3 4 1016.0 1016.0 0.0
26/05:00am 20.7 23.3 20.4 98 0.2 E 7 11 4 6 1015.9 - 0.0
26/04:30am 19.1 21.2 18.1 94 0.6 E 4 4 2 2 1015.4 1015.4 0.0
26/04:00am 19.9 22.3 18.7 93 0.7 E 4 4 2 2 1015.6 - 0.0
26/03:30am 20.9 23.6 20.2 96 0.4 E 6 7 3 4 1015.8 1015.8 0.0
26/03:00am 20.6 23.3 19.4 93 0.8 ESE 4 6 2 3 1015.7 1015.7 0.0
26/02:30am 21.1 24.0 19.9 93 0.8 SE 4 6 2 3 1015.8 1015.8 0.0
26/02:00am 21.6 24.8 20.4 93 0.8 SSE 4 6 2 3 1015.6 - 0.0
26/01:30am 21.8 25.1 20.8 94 0.6 S 4 7 2 4 1015.7 1015.7 0.0
26/01:00am 21.8 25.3 21.1 96 0.5 SSE 4 6 2 3 1015.9 - 0.0
26/12:30am 21.1 24.0 19.9 93 0.8 SSE 4 6 2 3 1016.0 1016.0 0.0
26/12:00am 22.1 25.9 21.6 97 0.3 SSE 4 7 2 4 1016.1 1016.1 0.0
 
Date/Time
CST
Temp
°C
App
Temp
°C
Dew
Point
Rel
Hum
%
Delta-T
°C
Wind Press
QNH
hPa
Press
MSL
hPa
Rain
since 9 am
mm
Dir
 
Spd
km/h
Gust
km/h
Spd
kts
Gust
kts
25/11:30pm 20.4 23.7 19.1 92 0.8 CALM 0 0 0 0 1016.2 1016.2 0.0
25/11:00pm 20.6 23.8 18.9 90 1.1 CALM 0 2 0 1 1016.2 - 0.0
25/10:30pm 20.7 23.8 18.6 88 1.3 CALM 0 0 0 0 1016.0 1016.0 0.0
25/10:00pm 20.8 23.9 18.7 88 1.3 CALM 0 0 0 0 1016.1 - 0.0
25/09:30pm 21.0 24.3 19.1 89 1.2 CALM 0 0 0 0 1016.1 1016.1 0.0
25/09:00pm 21.4 24.5 18.6 84 1.8 CALM 0 0 0 0 1015.8 1015.8 0.0
25/08:30pm 21.7 24.7 18.5 82 2.0 CALM 0 0 0 0 1015.4 1015.4 0.0
25/08:00pm 22.8 26.1 19.0 79 2.4 CALM 0 4 0 2 1015.0 - 0.0
25/07:30pm 24.4 27.3 19.9 76 2.9 W 4 6 2 3 1014.5 1014.5 0.0
25/07:00pm 25.0 27.6 20.0 74 3.2 W 6 11 3 6 1014.2 - 0.0
25/06:30pm 25.4 27.9 19.8 71 3.6 W 6 9 3 5 1014.2 1014.2 0.0
25/06:00pm 26.3 29.2 19.9 68 4.2 W 4 9 2 5 1014.2 1014.2 0.0
25/05:30pm 26.8 29.6 20.4 68 4.2 WNW 6 11 3 6 1013.9 1013.9 0.0
25/05:00pm 26.8 29.1 19.9 66 4.5 NW 7 11 4 6 1013.6 - 0.0
25/04:30pm 27.4 29.4 20.0 64 4.8 NNW 9 15 5 8 1013.3 1013.3 0.0
25/04:00pm 27.9 29.6 20.2 63 5.0 N 11 19 6 10 1013.3 - 0.0
25/03:30pm 27.4 28.8 19.5 62 5.1 N 11 19 6 10 1013.3 1013.3 0.0
25/03:00pm 27.7 28.9 19.8 62 5.1 N 13 20 7 11 1013.5 1013.5 0.0
25/02:30pm 28.3 29.5 20.6 63 5.1 N 15 20 8 11 1013.8 1013.8 0.0
25/02:00pm 27.8 29.2 20.4 64 4.9 N 13 19 7 10 1014.2 - 0.0
25/01:30pm 28.4 30.5 20.9 64 5.0 NNW 11 17 6 9 1014.6 1014.6 0.0
25/01:00pm 29.2 30.6 18.6 52 6.8 NE 9 17 5 9 1015.1 - 0.0
25/12:30pm 28.7 30.8 19.3 56 6.1 ENE 7 15 4 8 1015.7 1015.7 0.0
25/12:00pm 27.9 29.4 19.7 61 5.3 E 11 19 6 10 1016.0 1016.0 0.0
25/11:30am 27.3 28.9 19.9 64 4.8 E 11 17 6 9 1016.2 1016.2 0.0
25/11:00am 27.2 29.0 20.3 66 4.5 E 11 17 6 9 1016.6 - 0.0
25/10:30am 26.7 28.5 20.3 68 4.2 E 11 17 6 9 1016.8 1016.8 0.0
25/10:00am 26.1 29.6 22.2 79 2.6 E 7 11 4 6 1016.9 - 0.0
25/09:30am 23.7 27.1 22.0 90 1.1 E 7 11 4 6 1016.6 1016.6 0.0
25/09:00am 22.1 25.4 21.8 98 0.2 E 7 11 4 6 1016.5 1016.5 0.0
25/08:30am 21.6 24.3 21.3 98 0.2 E 9 13 5 7 1016.3 1016.3 0.0
25/08:00am 21.6 24.6 21.3 98 0.2 E 7 9 4 5 1015.9 - 0.0
25/07:30am 21.8 24.9 21.5 98 0.2 E 7 11 4 6 1015.4 1015.4 0.0
25/07:00am 21.1 24.1 20.8 98 0.2 E 6 7 3 4 1014.9 - 0.0
25/06:30am 20.9 23.8 20.6 98 0.2 E 6 7 3 4 1014.7 1014.7 0.0
25/06:00am 21.1 24.1 20.8 98 0.2 E 6 7 3 4 1014.4 1014.4 0.0
25/05:30am 18.8 20.8 17.8 94 0.6 E 4 7 2 4 1014.2 1014.2 0.0
25/05:00am 19.1 21.5 17.9 93 0.7 SSE 2 4 1 2 1014.2 - 0.0
25/04:30am 19.2 22.1 18.2 94 0.6 CALM 0 0 0 0 1013.8 1013.8 0.0
25/04:00am 20.5 23.8 20.0 97 0.3 S 2 4 1 2 1013.8 - 0.0
25/03:30am 20.3 23.4 19.6 96 0.4 SSE 2 4 1 2 1013.8 1013.8 0.0
25/03:00am 20.0 22.6 19.2 95 0.5 SSE 4 4 2 2 1013.9 1013.9 0.0
25/02:30am 19.6 22.7 18.6 94 0.6 CALM 0 0 0 0 1014.0 1014.0 0.0
25/02:00am 19.8 22.5 18.6 93 0.7 SSE 2 4 1 2 1014.2 - 0.0
25/01:30am 19.9 22.6 18.6 92 0.8 SSE 2 4 1 2 1014.3 1014.3 0.0
25/01:00am 20.1 23.3 18.8 92 0.8 CALM 0 6 0 3 1014.2 - 0.0
25/12:30am 20.4 23.2 18.9 91 0.9 S 2 4 1 2 1014.0 1014.0 0.0
25/12:00am 20.1 23.0 18.1 88 1.2 CALM 0 0 0 0 1013.9 1013.9 0.0
 
Date/Time
CST
Temp
°C
App
Temp
°C
Dew
Point
Rel
Hum
%
Delta-T
°C
Wind Press
QNH
hPa
Press
MSL
hPa
Rain
since 9 am
mm
Dir
 
Spd
km/h
Gust
km/h
Spd
kts
Gust
kts
24/11:30pm 20.8 23.9 18.6 87 1.4 CALM 0 2 0 1 1014.1 1014.1 0.0
24/11:00pm 22.1 25.6 19.5 85 1.7 CALM 0 0 0 0 1014.1 - 0.0
24/10:30pm 23.6 27.2 20.5 83 2.0 SSW 2 6 1 3 1014.0 1014.0 0.0
24/10:00pm 24.1 26.9 20.4 80 2.4 SSW 6 9 3 5 1013.9 - 0.0
24/09:30pm 24.1 26.6 19.8 77 2.8 SW 6 11 3 6 1013.8 1013.8 0.0
24/09:00pm 24.1 27.2 19.4 75 3.0 SW 2 6 1 3 1013.6 1013.6 0.0
24/08:30pm 24.1 26.5 18.7 72 3.4 SSW 4 7 2 4 1013.1 1013.1 0.0
24/08:00pm 24.6 27.1 19.0 71 3.6 SSW 4 7 2 4 1012.9 - 0.0
24/07:30pm 24.8 27.1 18.5 68 4.0 WSW 4 9 2 5 1012.5 1012.5 0.0
24/07:00pm 25.0 27.2 18.4 66 4.2 WSW 4 11 2 6 1012.2 - 0.0
24/06:30pm 25.7 27.6 18.9 66 4.3 WSW 7 17 4 9 1011.9 1011.9 0.0
24/06:00pm 26.4 27.7 18.5 62 5.0 W 9 17 5 9 1011.7 1011.7 0.0
24/05:30pm 26.9 29.2 19.8 65 4.6 W 7 17 4 9 1011.5 1011.5 0.0
24/05:00pm 27.1 28.8 19.4 62 5.0 W 9 15 5 8 1011.4 - 0.0
24/04:30pm 27.2 28.7 19.0 61 5.3 WNW 9 15 5 8 1011.3 1011.3 0.0
24/04:00pm 27.3 28.7 18.6 59 5.6 NW 9 17 5 9 1011.1 - 0.0
24/03:30pm 28.4 30.4 19.1 57 6.0 NW 7 13 4 7 1011.2 1011.2 0.0
24/03:00pm 27.7 28.9 19.0 59 5.6 NW 11 15 6 8 1011.4 1011.4 0.0
24/02:30pm 27.7 29.2 19.8 62 5.1 NNW 11 17 6 9 1011.8 1011.8 0.0
24/02:00pm 27.9 29.4 19.7 61 5.3 NNW 11 19 6 10 1012.3 - 0.0
24/01:30pm 28.1 28.7 18.5 56 6.1 N 13 19 7 10 1013.0 1013.0 0.0
24/01:00pm 29.1 30.5 17.9 50 7.1 NNE 7 13 4 7 1013.4 - 0.0
24/12:30pm 29.1 29.7 17.6 50 7.3 NE 11 22 6 12 1013.9 1013.9 0.0
24/12:00pm 29.0 28.3 13.2 37 9.4 NE 9 17 5 9 1014.3 1014.3 0.0
24/11:30am 27.8 28.3 15.1 46 7.7 WSW 6 7 3 4 1014.8 1014.8 0.0
24/11:00am 28.4 29.8 16.3 47 7.5 SSE 4 7 2 4 1015.0 - 0.0
24/10:30am 27.4 29.2 17.3 54 6.3 E 4 9 2 5 1015.2 1015.2 0.0
24/10:00am 26.4 27.6 16.9 56 5.9 ENE 6 9 3 5 1015.2 - 0.0
24/09:30am 25.2 27.9 20.2 74 3.2 E 6 9 3 5 1015.1 1015.1 0.0
24/09:00am 24.2 27.4 21.3 84 1.9 E 6 9 3 5 1015.0 1015.0 0.0
24/08:30am 22.7 26.0 21.5 93 0.8 E 6 7 3 4 1014.6 1014.6 0.0
24/08:00am 21.3 24.7 21.0 98 0.2 E 4 6 2 3 1014.2 - 0.0
24/07:30am 20.1 22.6 19.8 98 0.2 E 6 7 3 4 1013.8 1013.8 0.0
24/07:00am 20.4 23.0 20.1 98 0.2 E 6 11 3 6 1013.5 - 0.0
24/06:30am 19.4 21.6 19.1 98 0.2 ESE 6 9 3 5 1013.1 1013.1 0.0
24/06:00am 17.9 19.7 17.3 96 0.4 ESE 4 4 2 2 1012.7 1012.7 0.0
24/05:30am 17.9 19.6 17.1 95 0.5 SE 4 4 2 2 1012.6 1012.6 0.0
24/05:00am 18.1 19.9 17.5 96 0.4 ESE 4 6 2 3 1012.6 - 0.0
24/04:30am 18.8 20.6 18.3 97 0.3 ESE 6 6 3 3 1012.4 1012.4 0.0
24/04:00am 17.8 20.2 17.0 95 0.5 CALM 0 2 0 1 1012.3 - 0.0
24/03:30am 18.1 20.5 17.1 94 0.6 CALM 0 4 0 2 1012.3 1012.3 0.0
24/03:00am 18.1 20.5 17.0 93 0.7 CALM 0 0 0 0 1012.7 1012.7 0.0
24/02:30am 18.5 21.0 17.3 93 0.7 CALM 0 4 0 2 1013.0 1013.0 0.0
24/02:00am 18.9 21.7 17.9 94 0.6 CALM 0 0 0 0 1013.3 - 0.0
24/01:30am 18.8 21.5 17.8 94 0.6 CALM 0 0 0 0 1013.4 1013.4 0.0
24/01:00am 18.9 21.6 17.7 93 0.7 CALM 0 0 0 0 1013.6 - 0.0
24/12:30am 19.0 21.8 18.0 94 0.6 CALM 0 0 0 0 1013.5 1013.5 0.0
24/12:00am 18.7 21.3 17.5 93 0.7 CALM 0 0 0 0 1013.5 1013.5 0.0
 
Date/Time
CST
Temp
°C
App
Temp
°C
Dew
Point
Rel
Hum
%
Delta-T
°C
Wind Press
QNH
hPa
Press
MSL
hPa
Rain
since 9 am
mm
Dir
 
Spd
km/h
Gust
km/h
Spd
kts
Gust
kts
23/11:30pm 18.9 21.5 17.6 92 0.8 CALM 0 0 0 0 1013.5 1013.5 0.0
23/11:00pm 18.8 21.4 17.5 92 0.8 CALM 0 0 0 0 1013.6 - 0.0
23/10:30pm 19.2 22.0 17.9 92 0.8 CALM 0 0 0 0 1013.5 1013.5 0.0
23/10:00pm 19.4 22.1 17.7 90 1.0 CALM 0 4 0 2 1013.3 - 0.0
23/09:30pm 19.5 22.1 17.6 89 1.2 CALM 0 0 0 0 1013.1 1013.1 0.0
23/09:00pm 19.4 21.0 17.0 86 1.5 NW 4 4 2 2 1012.7 1012.7 0.0
23/08:30pm 20.0 22.5 17.2 84 1.7 CALM 0 0 0 0 1012.4 1012.4 0.0
23/08:00pm 20.5 22.5 17.9 85 1.6 NNW 4 4 2 2 1012.1 - 0.0
23/07:30pm 21.4 23.1 17.2 77 2.6 N 4 4 2 2 1011.8 1011.8 0.0
23/07:00pm 23.3 25.4 18.0 72 3.3 NNW 4 6 2 3 1011.6 - 0.0
23/06:30pm 24.4 26.7 18.6 70 3.7 NW 4 7 2 4 1011.4 1011.4 0.0
23/06:00pm 25.4 27.3 18.6 66 4.3 NW 6 13 3 7 1011.3 1011.3 0.0
23/05:30pm 26.2 28.3 19.3 65 4.4 NW 7 11 4 6 1011.2 1011.2 0.0
23/05:00pm 26.1 27.4 18.5 63 4.8 NW 9 17 5 9 1011.0 - 0.0
23/04:30pm 26.4 27.3 18.3 61 5.1 NNW 11 19 6 10 1010.8 1010.8 0.0
23/04:00pm 26.8 27.7 18.4 60 5.3 NW 11 17 6 9 1010.9 - 0.0
23/03:30pm 26.7 27.2 18.3 60 5.3 NNW 13 20 7 11 1010.7 1010.7 0.0
23/03:00pm 27.8 29.1 18.5 57 6.0 NNW 9 17 5 9 1010.9 1010.9 0.0
23/02:30pm 27.7 28.5 19.0 59 5.6 NW 13 19 7 10 1011.3 1011.3 0.0

Other Formats:

Comma delimited format used in spreadsheet applications
http://www.bom.gov.au/fwo/IDD60801/IDD60801.94116.axf

JavaScript Object Notation format (JSON) in row-major order
http://www.bom.gov.au/fwo/IDD60801/IDD60801.94116.json